sensor_id;sensor_type;location;lat;lon;timestamp;P1;durP1;ratioP1;P2;durP2;ratioP2
49710;SDS011;35602;44.534;18.696;2023-05-03T14:20:03;65.10;;;51.97;;
49710;SDS011;35602;44.534;18.696;2023-05-03T14:25:09;74.68;;;58.87;;
49710;SDS011;35602;44.534;18.696;2023-05-03T14:30:11;65.43;;;54.63;;
49710;SDS011;35602;44.534;18.696;2023-05-03T14:35:13;65.72;;;53.92;;
49710;SDS011;35602;44.534;18.696;2023-05-03T14:40:19;65.18;;;54.30;;
49710;SDS011;35602;44.534;18.696;2023-05-03T14:45:21;63.22;;;53.45;;
49710;SDS011;35602;44.534;18.696;2023-05-03T14:50:24;58.72;;;52.08;;
49710;SDS011;35602;44.534;18.696;2023-05-03T14:55:26;60.08;;;51.33;;
49710;SDS011;35602;44.534;18.696;2023-05-03T15:00:26;61.20;;;49.85;;
49710;SDS011;35602;44.534;18.696;2023-05-03T15:05:28;59.60;;;50.25;;
49710;SDS011;35602;44.534;18.696;2023-05-03T15:10:29;57.75;;;48.60;;
49710;SDS011;35602;44.534;18.696;2023-05-03T15:15:31;57.00;;;48.58;;
49710;SDS011;35602;44.534;18.696;2023-05-03T15:20:32;57.85;;;49.90;;
49710;SDS011;35602;44.534;18.696;2023-05-03T15:25:33;57.22;;;47.03;;
49710;SDS011;35602;44.534;18.696;2023-05-03T15:30:34;52.90;;;46.92;;
49710;SDS011;35602;44.534;18.696;2023-05-03T15:35:37;51.92;;;45.38;;
49710;SDS011;35602;44.534;18.696;2023-05-03T15:40:39;52.80;;;46.63;;
49710;SDS011;35602;44.534;18.696;2023-05-03T15:45:40;48.70;;;43.22;;
49710;SDS011;35602;44.534;18.696;2023-05-03T15:50:41;49.58;;;44.17;;
49710;SDS011;35602;44.534;18.696;2023-05-03T15:55:42;48.78;;;43.47;;
49710;SDS011;35602;44.534;18.696;2023-05-03T16:00:42;49.88;;;44.40;;
49710;SDS011;35602;44.534;18.696;2023-05-03T16:05:43;46.05;;;40.22;;
49710;SDS011;35602;44.534;18.696;2023-05-03T16:10:45;46.97;;;41.88;;
49710;SDS011;35602;44.534;18.696;2023-05-03T16:15:47;47.88;;;42.42;;
49710;SDS011;35602;44.534;18.696;2023-05-03T16:20:51;46.53;;;38.63;;
49710;SDS011;35602;44.534;18.696;2023-05-03T16:25:52;44.05;;;39.00;;
49710;SDS011;35602;44.534;18.696;2023-05-03T16:30:53;48.28;;;41.28;;
49710;SDS011;35602;44.534;18.696;2023-05-03T16:35:53;45.47;;;40.63;;
49710;SDS011;35602;44.534;18.696;2023-05-03T16:40:57;46.95;;;40.72;;
49710;SDS011;35602;44.534;18.696;2023-05-03T16:45:59;42.92;;;38.33;;
49710;SDS011;35602;44.534;18.696;2023-05-03T16:51:00;44.60;;;39.40;;
49710;SDS011;35602;44.534;18.696;2023-05-03T16:56:01;43.03;;;38.35;;
49710;SDS011;35602;44.534;18.696;2023-05-03T17:01:02;43.63;;;38.05;;
49710;SDS011;35602;44.534;18.696;2023-05-03T17:06:03;44.83;;;39.95;;
49710;SDS011;35602;44.534;18.696;2023-05-03T17:11:06;43.78;;;39.13;;
49710;SDS011;35602;44.534;18.696;2023-05-03T17:16:10;43.38;;;37.67;;
49710;SDS011;35602;44.534;18.696;2023-05-03T17:21:14;43.25;;;37.38;;
49710;SDS011;35602;44.534;18.696;2023-05-03T17:26:15;41.90;;;37.40;;
49710;SDS011;35602;44.534;18.696;2023-05-03T17:31:16;43.85;;;38.45;;
49710;SDS011;35602;44.534;18.696;2023-05-03T17:36:17;42.62;;;38.03;;
49710;SDS011;35602;44.534;18.696;2023-05-03T17:41:18;40.92;;;34.90;;
49710;SDS011;35602;44.534;18.696;2023-05-03T17:46:22;42.30;;;37.72;;
49710;SDS011;35602;44.534;18.696;2023-05-03T17:51:23;40.58;;;35.70;;
49710;SDS011;35602;44.534;18.696;2023-05-03T17:56:24;38.95;;;34.40;;
49710;SDS011;35602;44.534;18.696;2023-05-03T18:01:25;40.17;;;35.22;;
49710;SDS011;35602;44.534;18.696;2023-05-03T18:06:26;37.65;;;33.40;;
49710;SDS011;35602;44.534;18.696;2023-05-03T18:11:28;38.17;;;33.95;;
49710;SDS011;35602;44.534;18.696;2023-05-03T18:16:29;39.42;;;34.28;;
49710;SDS011;35602;44.534;18.696;2023-05-03T18:21:30;41.97;;;34.65;;
49710;SDS011;35602;44.534;18.696;2023-05-03T18:26:31;36.90;;;32.85;;
49710;SDS011;35602;44.534;18.696;2023-05-03T18:31:32;37.13;;;32.55;;
49710;SDS011;35602;44.534;18.696;2023-05-03T18:36:32;39.13;;;33.67;;
49710;SDS011;35602;44.534;18.696;2023-05-03T18:41:33;36.67;;;32.67;;
49710;SDS011;35602;44.534;18.696;2023-05-03T18:46:34;37.60;;;33.33;;
49710;SDS011;35602;44.534;18.696;2023-05-03T18:51:36;38.88;;;34.42;;
49710;SDS011;35602;44.534;18.696;2023-05-03T18:56:37;39.47;;;34.40;;
49710;SDS011;35602;44.534;18.696;2023-05-03T19:01:38;39.28;;;34.17;;
49710;SDS011;35602;44.534;18.696;2023-05-03T19:06:39;38.08;;;32.70;;
49710;SDS011;35602;44.534;18.696;2023-05-03T19:11:40;39.13;;;34.85;;
49710;SDS011;35602;44.534;18.696;2023-05-03T19:16:41;38.40;;;33.55;;
49710;SDS011;35602;44.534;18.696;2023-05-03T19:21:42;39.58;;;34.30;;
49710;SDS011;35602;44.534;18.696;2023-05-03T19:26:43;34.80;;;31.00;;
49710;SDS011;35602;44.534;18.696;2023-05-03T19:31:44;38.50;;;33.22;;
49710;SDS011;35602;44.534;18.696;2023-05-03T19:36:45;40.38;;;33.90;;
49710;SDS011;35602;44.534;18.696;2023-05-03T19:41:54;38.33;;;34.13;;
49710;SDS011;35602;44.534;18.696;2023-05-03T19:46:55;38.28;;;33.63;;
49710;SDS011;35602;44.534;18.696;2023-05-03T19:51:58;38.80;;;33.08;;
49710;SDS011;35602;44.534;18.696;2023-05-03T19:57:02;39.45;;;34.40;;
49710;SDS011;35602;44.534;18.696;2023-05-03T20:02:07;37.50;;;32.08;;
49710;SDS011;35602;44.534;18.696;2023-05-03T20:07:08;34.85;;;29.65;;
49710;SDS011;35602;44.534;18.696;2023-05-03T20:12:08;35.95;;;32.05;;
49710;SDS011;35602;44.534;18.696;2023-05-03T20:17:11;37.15;;;31.62;;
49710;SDS011;35602;44.534;18.696;2023-05-03T20:22:12;37.58;;;31.80;;
49710;SDS011;35602;44.534;18.696;2023-05-03T20:27:13;37.47;;;31.85;;
49710;SDS011;35602;44.534;18.696;2023-05-03T20:32:14;36.97;;;31.02;;
49710;SDS011;35602;44.534;18.696;2023-05-03T20:37:15;36.97;;;31.80;;
49710;SDS011;35602;44.534;18.696;2023-05-03T20:42:15;36.25;;;32.15;;
49710;SDS011;35602;44.534;18.696;2023-05-03T20:47:19;37.53;;;31.62;;
49710;SDS011;35602;44.534;18.696;2023-05-03T20:52:20;38.45;;;31.65;;
49710;SDS011;35602;44.534;18.696;2023-05-03T20:57:21;36.45;;;30.17;;
49710;SDS011;35602;44.534;18.696;2023-05-03T21:02:22;38.13;;;31.25;;
49710;SDS011;35602;44.534;18.696;2023-05-03T21:07:22;37.35;;;31.27;;
49710;SDS011;35602;44.534;18.696;2023-05-03T21:12:24;34.40;;;29.73;;
49710;SDS011;35602;44.534;18.696;2023-05-03T21:17:25;34.95;;;29.10;;
49710;SDS011;35602;44.534;18.696;2023-05-03T21:22:25;34.58;;;29.87;;
49710;SDS011;35602;44.534;18.696;2023-05-03T21:27:27;31.58;;;28.02;;
49710;SDS011;35602;44.534;18.696;2023-05-03T21:32:27;33.33;;;29.05;;
49710;SDS011;35602;44.534;18.696;2023-05-03T21:37:28;34.97;;;29.98;;
49710;SDS011;35602;44.534;18.696;2023-05-03T21:42:29;36.17;;;30.15;;
49710;SDS011;35602;44.534;18.696;2023-05-03T21:47:30;35.00;;;28.80;;
49710;SDS011;35602;44.534;18.696;2023-05-03T21:52:32;32.28;;;28.62;;
49710;SDS011;35602;44.534;18.696;2023-05-03T21:57:33;32.00;;;27.42;;
49710;SDS011;35602;44.534;18.696;2023-05-03T22:02:34;34.70;;;29.15;;
49710;SDS011;35602;44.534;18.696;2023-05-03T22:07:34;35.70;;;28.73;;
49710;SDS011;35602;44.534;18.696;2023-05-03T22:12:37;32.83;;;28.50;;
49710;SDS011;35602;44.534;18.696;2023-05-03T22:17:38;32.15;;;28.05;;
49710;SDS011;35602;44.534;18.696;2023-05-03T22:22:39;35.15;;;28.73;;
49710;SDS011;35602;44.534;18.696;2023-05-03T22:27:42;30.33;;;26.67;;
49710;SDS011;35602;44.534;18.696;2023-05-03T22:32:43;32.40;;;27.65;;
49710;SDS011;35602;44.534;18.696;2023-05-03T22:37:44;31.70;;;26.85;;
49710;SDS011;35602;44.534;18.696;2023-05-03T22:42:45;31.52;;;25.88;;
49710;SDS011;35602;44.534;18.696;2023-05-03T22:47:46;29.85;;;26.65;;
49710;SDS011;35602;44.534;18.696;2023-05-03T22:52:47;32.22;;;27.00;;
49710;SDS011;35602;44.534;18.696;2023-05-03T22:57:48;30.25;;;26.17;;
49710;SDS011;35602;44.534;18.696;2023-05-03T23:02:49;29.65;;;26.17;;
49710;SDS011;35602;44.534;18.696;2023-05-03T23:07:50;29.73;;;25.92;;
49710;SDS011;35602;44.534;18.696;2023-05-03T23:12:51;31.17;;;27.05;;
49710;SDS011;35602;44.534;18.696;2023-05-03T23:17:51;29.40;;;25.17;;
49710;SDS011;35602;44.534;18.696;2023-05-03T23:22:52;26.37;;;23.23;;
49710;SDS011;35602;44.534;18.696;2023-05-03T23:27:54;29.25;;;25.27;;
49710;SDS011;35602;44.534;18.696;2023-05-03T23:32:55;28.80;;;24.23;;
49710;SDS011;35602;44.534;18.696;2023-05-03T23:37:55;29.12;;;25.05;;
49710;SDS011;35602;44.534;18.696;2023-05-03T23:42:57;28.48;;;24.83;;
49710;SDS011;35602;44.534;18.696;2023-05-03T23:47:58;28.05;;;23.85;;
49710;SDS011;35602;44.534;18.696;2023-05-03T23:52:59;28.05;;;24.23;;
49710;SDS011;35602;44.534;18.696;2023-05-03T23:58:02;28.25;;;24.02;;
